createdAt,value
2019-01-23T00:01:20.795Z,99845.81
2019-01-23T00:04:11.426Z,99850.19
2019-01-23T00:07:01.948Z,99845.98
2019-01-23T00:09:52.351Z,99837.56
2019-01-23T00:12:42.980Z,99832.27
2019-01-23T00:15:33.561Z,99837.23
2019-01-23T00:18:24.009Z,99828.39
2019-01-23T00:21:14.498Z,99829.86
2019-01-23T00:24:04.592Z,99827.53
2019-01-23T00:26:55.024Z,99823.06
2019-01-23T00:29:45.486Z,99828.05
2019-01-23T00:32:35.735Z,99832.31
2019-01-23T00:35:26.199Z,99838.38
2019-01-23T00:38:16.575Z,99835.81
2019-01-23T00:41:07.095Z,99841.27
2019-01-23T00:43:57.284Z,99856.22
2019-01-23T00:46:47.620Z,99854.28
2019-01-23T00:49:38.155Z,99854.50
2019-01-23T00:52:28.609Z,99855.36
2019-01-23T00:55:19.543Z,99850.14
2019-01-23T00:58:10.009Z,99855.23
2019-01-23T01:01:00.157Z,99848.91
2019-01-23T01:03:50.341Z,99846.96
2019-01-23T01:06:40.811Z,99847.56
2019-01-23T01:09:31.366Z,99841.75
2019-01-23T01:12:21.916Z,99833.13
2019-01-23T01:15:13.558Z,99837.47
2019-01-23T01:18:04.302Z,99817.23
2019-01-23T01:20:54.791Z,99828.01
2019-01-23T01:23:45.397Z,99830.07
2019-01-23T01:26:35.962Z,99828.13
2019-01-23T01:29:26.292Z,99831.92
2019-01-23T01:32:16.800Z,99826.80
2019-01-23T01:35:07.297Z,99822.58
2019-01-23T01:37:57.575Z,99825.86
2019-01-23T01:40:47.851Z,99824.05
2019-01-23T01:43:38.157Z,99823.31
2019-01-23T01:46:28.582Z,99818.57
2019-01-23T01:49:19.030Z,99806.77
2019-01-23T01:52:09.635Z,99802.63
2019-01-23T01:55:00.363Z,99807.36
2019-01-23T01:57:54.018Z,99803.36
2019-01-23T02:00:44.700Z,99795.83
2019-01-23T02:03:34.990Z,99790.02
2019-01-23T02:06:25.200Z,99782.86
2019-01-23T02:09:15.700Z,99773.49
2019-01-23T02:12:06.068Z,99773.84
2019-01-23T02:14:56.490Z,99770.56
2019-01-23T02:17:46.993Z,99774.97
2019-01-23T02:20:38.393Z,99779.84
2019-01-23T02:23:28.994Z,99776.20
2019-01-23T02:26:19.440Z,99785.31
2019-01-23T02:29:09.843Z,99774.73
2019-01-23T02:32:00.402Z,99780.58
2019-01-23T02:34:51.369Z,99791.41
2019-01-23T02:37:41.871Z,99781.84
2019-01-23T02:40:35.096Z,99787.19
2019-01-23T02:43:25.749Z,99792.14
2019-01-23T02:46:16.439Z,99792.43
2019-01-23T02:49:06.865Z,99791.56
2019-01-23T02:51:57.296Z,99776.53
2019-01-23T02:54:47.788Z,99771.22
2019-01-23T02:57:38.290Z,99772.17
2019-01-23T03:00:28.953Z,99769.77
2019-01-23T03:03:19.472Z,99762.97
2019-01-23T03:06:09.888Z,99754.72
2019-01-23T03:09:00.468Z,99752.05
2019-01-23T03:11:52.293Z,99742.84
2019-01-23T03:14:42.879Z,99736.52
2019-01-23T03:17:33.601Z,99743.19
2019-01-23T03:20:24.190Z,99739.31
2019-01-23T03:23:14.588Z,99744.04
2019-01-23T03:26:06.157Z,99744.64
2019-01-23T03:28:56.308Z,99740.17
2019-01-23T03:31:46.479Z,99740.04
2019-01-23T03:34:36.867Z,99740.99
2019-01-23T03:37:27.384Z,99741.85
2019-01-23T03:40:19.564Z,99713.36
2019-01-23T03:43:10.122Z,99731.30
2019-01-23T03:46:00.346Z,99741.59
2019-01-23T03:48:50.674Z,99736.52
2019-01-23T03:51:41.453Z,99740.27
2019-01-23T03:54:31.878Z,99735.31
2019-01-23T03:57:22.243Z,99739.41
2019-01-23T04:00:14.722Z,99732.25
2019-01-23T04:03:05.364Z,99723.03
2019-01-23T04:05:55.533Z,99716.45
2019-01-23T04:08:45.862Z,99718.84
2019-01-23T04:11:36.314Z,99717.25
2019-01-23T04:14:26.572Z,99713.84
2019-01-23T04:17:17.032Z,99712.64
2019-01-23T04:20:10.988Z,99709.63
2019-01-23T04:23:01.273Z,99710.95
2019-01-23T04:25:51.454Z,99708.38
2019-01-23T04:28:41.979Z,99705.56
2019-01-23T04:31:32.597Z,99710.91
2019-01-23T04:34:23.348Z,99714.43
2019-01-23T04:37:14.011Z,99713.16
2019-01-23T04:40:04.557Z,99712.29
2019-01-23T04:42:54.851Z,99712.14
2019-01-23T04:45:45.061Z,99723.81
2019-01-23T04:48:35.243Z,99729.77
2019-01-23T04:51:44.548Z,99734.73
2019-01-23T04:54:34.878Z,99727.42
2019-01-23T04:57:25.432Z,99732.64
2019-01-23T05:00:19.362Z,99737.25
2019-01-23T05:03:09.617Z,99735.45
2019-01-23T05:06:00.065Z,99730.97
2019-01-23T05:08:50.654Z,99741.83
2019-01-23T05:11:41.111Z,99748.87
2019-01-23T05:14:31.541Z,99747.30
2019-01-23T05:17:26.065Z,99751.18
2019-01-23T05:20:17.883Z,99762.10
2019-01-23T05:23:08.368Z,99767.52
2019-01-23T05:25:58.983Z,99747.23
2019-01-23T05:28:49.587Z,99745.15
2019-01-23T05:31:40.327Z,99732.34
2019-01-23T05:34:30.805Z,99719.84
2019-01-23T05:37:21.379Z,99738.78
2019-01-23T05:40:11.971Z,99736.11
2019-01-23T05:43:02.380Z,99730.53
2019-01-23T05:45:52.819Z,99731.06
2019-01-23T05:48:43.261Z,99719.41
2019-01-23T05:51:33.522Z,99714.55
2019-01-23T05:54:24.541Z,99718.58
2019-01-23T05:57:15.064Z,99725.07
2019-01-23T06:00:06.821Z,99725.72
2019-01-23T06:02:57.320Z,99735.95
2019-01-23T06:05:48.364Z,99753.19
2019-01-23T06:08:38.997Z,99746.83
2019-01-23T06:11:29.641Z,99751.83
2019-01-23T06:14:20.132Z,99753.46
2019-01-23T06:17:11.777Z,99750.52
2019-01-23T06:20:01.931Z,99740.44
2019-01-23T06:22:52.505Z,99743.52
2019-01-23T06:25:43.055Z,99741.16
2019-01-23T06:28:33.487Z,99750.77
2019-01-23T06:31:24.020Z,99755.97
2019-01-23T06:34:14.482Z,99753.03
2019-01-23T06:37:04.652Z,99737.44
2019-01-23T06:39:55.246Z,99744.53
2019-01-23T06:42:45.524Z,99735.83
2019-01-23T06:45:36.136Z,99734.87
2019-01-23T06:48:26.667Z,99729.34
2019-01-23T06:51:17.192Z,99725.84
2019-01-23T06:54:07.498Z,99714.42
2019-01-23T06:56:58.170Z,99723.25
2019-01-23T06:59:48.616Z,99729.34
2019-01-23T07:02:39.096Z,99710.25
2019-01-23T07:05:29.481Z,99700.11
2019-01-23T07:08:20.024Z,99709.09
2019-01-23T07:11:10.463Z,99720.20
2019-01-23T07:14:01.232Z,99706.89
2019-01-23T07:16:51.890Z,99708.61
2019-01-23T07:19:42.408Z,99709.94
2019-01-23T07:22:33.018Z,99719.09
2019-01-23T07:25:23.455Z,99716.38
2019-01-23T07:28:16.591Z,99711.33
2019-01-23T07:31:06.812Z,99701.34
2019-01-23T07:33:56.859Z,99700.16
2019-01-23T07:36:47.401Z,99700.11
2019-01-23T07:39:37.971Z,99703.55
2019-01-23T07:42:28.386Z,99716.56
2019-01-23T07:45:19.356Z,99717.33
2019-01-23T07:48:09.623Z,99717.71
2019-01-23T07:51:00.261Z,99720.48
2019-01-23T07:53:55.154Z,99724.41
2019-01-23T07:56:48.422Z,99726.37
2019-01-23T07:59:39.050Z,99720.30
2019-01-23T08:02:29.562Z,99717.95
2019-01-23T08:05:22.243Z,99713.23
2019-01-23T08:08:12.655Z,99715.02
2019-01-23T08:11:03.546Z,99725.53
2019-01-23T08:13:54.238Z,99718.13
2019-01-23T08:16:45.679Z,99703.83
2019-01-23T08:19:36.260Z,99689.81
2019-01-23T08:22:26.899Z,99685.92
2019-01-23T08:25:17.475Z,99677.96
2019-01-23T08:28:07.716Z,99680.83
2019-01-23T08:30:58.216Z,99669.89
2019-01-23T08:33:48.666Z,99671.59
2019-01-23T08:36:39.141Z,99666.98
2019-01-23T08:39:29.304Z,99672.57
2019-01-23T08:42:19.847Z,99678.12
2019-01-23T08:45:11.023Z,99691.29
2019-01-23T08:48:01.659Z,99703.18
2019-01-23T08:50:52.724Z,99711.85
2019-01-23T08:53:43.478Z,99700.67
2019-01-23T08:56:33.740Z,99690.38
2019-01-23T08:59:23.959Z,99686.69
2019-01-23T09:02:14.145Z,99691.63
2019-01-23T09:05:04.578Z,99680.42
2019-01-23T09:07:54.824Z,99684.72
2019-01-23T09:10:45.040Z,99688.67
2019-01-23T09:13:35.591Z,99668.28
2019-01-23T09:16:25.987Z,99681.17
2019-01-23T09:19:16.606Z,99666.58
2019-01-23T09:22:07.315Z,99668.92
2019-01-23T09:24:57.988Z,99673.65
2019-01-23T09:27:48.347Z,99666.95
2019-01-23T09:31:00.359Z,99664.16
2019-01-23T09:34:15.592Z,99659.16
2019-01-23T09:37:48.679Z,99651.83
2019-01-23T09:40:55.480Z,99657.70
2019-01-23T09:44:15.970Z,99649.86
2019-01-23T09:47:37.418Z,99632.58
2019-01-23T09:51:11.716Z,99632.36
2019-01-23T09:54:12.684Z,99634.78
2019-01-23T09:57:03.031Z,99625.51
2019-01-23T09:59:53.640Z,99621.59
2019-01-23T10:02:45.618Z,99622.05
2019-01-23T10:05:37.252Z,99618.51
2019-01-23T10:08:27.794Z,99621.48
2019-01-23T10:11:17.972Z,99608.97
2019-01-23T10:14:08.898Z,99605.20
2019-01-23T10:16:59.031Z,99603.19
2019-01-23T10:19:49.817Z,99603.63
2019-01-23T10:22:40.047Z,99603.70
2019-01-23T10:25:31.025Z,99602.36
2019-01-23T10:28:21.413Z,99593.31
2019-01-23T10:31:11.907Z,99587.14
2019-01-23T10:34:02.406Z,99580.52
2019-01-23T10:36:53.117Z,99576.65
2019-01-23T10:39:43.595Z,99564.34
2019-01-23T10:42:34.041Z,99560.48
2019-01-23T10:45:24.339Z,99539.52
2019-01-23T10:48:15.141Z,99551.58
2019-01-23T10:51:05.340Z,99535.24
2019-01-23T10:53:56.184Z,99534.53
2019-01-23T10:56:46.725Z,99532.96
2019-01-23T10:59:37.436Z,99530.43
2019-01-23T11:02:27.971Z,99529.48
2019-01-23T11:05:20.428Z,99518.61
2019-01-23T11:08:10.731Z,99516.93
2019-01-23T11:11:01.299Z,99510.38
2019-01-23T11:13:51.620Z,99503.06
2019-01-23T11:16:42.571Z,99494.28
2019-01-23T11:19:33.231Z,99493.73
2019-01-23T11:22:23.783Z,99498.94
2019-01-23T11:25:14.341Z,99484.67
2019-01-23T11:28:04.735Z,99462.59
2019-01-23T11:30:55.071Z,99473.95
2019-01-23T11:33:45.629Z,99470.31
2019-01-23T11:36:36.087Z,99467.63
2019-01-23T11:39:26.532Z,99468.03
2019-01-23T11:42:16.990Z,99459.58
2019-01-23T11:45:09.032Z,99464.41
2019-01-23T11:47:59.608Z,99455.48
2019-01-23T11:50:50.360Z,99455.33
2019-01-23T11:53:41.125Z,99451.30
2019-01-23T11:56:31.865Z,99442.55
2019-01-23T11:59:22.075Z,99439.85
2019-01-23T12:02:12.642Z,99434.38
2019-01-23T12:05:03.133Z,99440.69
2019-01-23T12:07:53.722Z,99432.62
2019-01-23T12:10:44.294Z,99413.54
2019-01-23T12:13:34.883Z,99420.95
2019-01-23T12:16:25.168Z,99408.13
2019-01-23T12:19:15.859Z,99414.26
2019-01-23T12:22:06.470Z,99389.36
2019-01-23T12:24:57.848Z,99391.39
2019-01-23T12:27:48.512Z,99383.89
2019-01-23T12:30:41.660Z,99380.48
2019-01-23T12:33:32.032Z,99375.66
2019-01-23T12:36:22.848Z,99359.91
2019-01-23T12:39:13.372Z,99364.38
2019-01-23T12:42:03.750Z,99362.06
2019-01-23T12:44:57.074Z,99371.55
2019-01-23T12:47:47.384Z,99357.12
2019-01-23T12:50:37.950Z,99358.08
2019-01-23T12:53:31.115Z,99352.18
2019-01-23T12:56:21.407Z,99354.43
2019-01-23T12:59:11.960Z,99357.27
2019-01-23T13:02:02.493Z,99350.36
2019-01-23T13:04:52.858Z,99350.45
2019-01-23T13:07:43.438Z,99345.37
2019-01-23T13:10:34.040Z,99340.36
2019-01-23T13:13:24.472Z,99330.45
2019-01-23T13:16:14.877Z,99314.13
2019-01-23T13:19:05.258Z,99325.23
2019-01-23T13:21:56.099Z,99321.86
2019-01-23T13:24:46.477Z,99312.70
2019-01-23T13:27:36.800Z,99309.59
2019-01-23T13:30:27.284Z,99312.27
2019-01-23T13:33:19.853Z,99313.28
2019-01-23T13:36:10.967Z,99289.55
2019-01-23T13:39:01.332Z,99293.09
2019-01-23T13:41:53.250Z,99293.73
2019-01-23T13:44:45.518Z,99301.72
2019-01-23T13:47:35.684Z,99288.20
2019-01-23T13:50:26.206Z,99270.56
2019-01-23T13:53:16.462Z,99268.11
2019-01-23T13:56:07.163Z,99263.28
2019-01-23T13:58:57.760Z,99251.26
2019-01-23T14:01:48.304Z,99244.98
2019-01-23T14:04:39.005Z,99244.38
2019-01-23T14:07:29.206Z,99247.35
2019-01-23T14:10:22.569Z,99237.80
2019-01-23T14:13:13.216Z,99233.55
2019-01-23T14:16:03.673Z,99214.58
2019-01-23T14:18:55.371Z,99190.08
2019-01-23T14:21:45.593Z,99198.13
2019-01-23T14:24:38.958Z,99191.09
2019-01-23T14:27:29.221Z,99190.57
2019-01-23T14:30:25.925Z,99189.88
2019-01-23T14:33:16.511Z,99183.45
2019-01-23T14:36:07.052Z,99186.98
2019-01-23T14:38:57.477Z,99174.66
2019-01-23T14:41:47.945Z,99166.61
2019-01-23T14:44:38.425Z,99178.31
2019-01-23T14:47:28.737Z,99177.66
2019-01-23T14:50:19.238Z,99180.13
2019-01-23T14:53:09.585Z,99168.92
2019-01-23T14:55:59.891Z,99178.83
2019-01-23T14:58:50.642Z,99175.14
2019-01-23T15:01:41.306Z,99162.32
2019-01-23T15:04:32.879Z,99155.95
2019-01-23T15:07:23.191Z,99153.95
2019-01-23T15:10:17.126Z,99158.68
2019-01-23T15:13:07.521Z,99145.16
2019-01-23T15:15:58.181Z,99145.52
2019-01-23T15:18:48.579Z,99144.55
2019-01-23T15:21:38.853Z,99146.05
2019-01-23T15:24:29.287Z,99133.63
2019-01-23T15:27:20.354Z,99131.80
2019-01-23T15:30:11.981Z,99125.62
2019-01-23T15:33:02.486Z,99114.53
2019-01-23T15:35:52.886Z,99119.08
2019-01-23T15:38:43.229Z,99119.23
2019-01-23T15:41:34.763Z,99118.19
2019-01-23T15:44:25.439Z,99114.53
2019-01-23T15:47:15.932Z,99112.34
2019-01-23T15:50:08.073Z,99105.51
2019-01-23T15:52:58.776Z,99102.47
2019-01-23T15:55:49.324Z,99105.34
2019-01-23T15:58:39.839Z,99102.50
2019-01-23T16:01:30.201Z,99085.47
2019-01-23T16:04:20.734Z,99073.70
2019-01-23T16:07:11.207Z,99067.02
2019-01-23T16:10:02.483Z,99073.20
2019-01-23T16:12:53.028Z,99077.42
2019-01-23T16:15:43.445Z,99103.63
2019-01-23T16:18:33.971Z,99171.33
2019-01-23T16:21:24.371Z,99203.98
2019-01-23T16:24:15.307Z,99123.50
2019-01-23T16:27:05.978Z,99117.63
2019-01-23T16:29:57.757Z,99112.66
2019-01-23T16:32:50.137Z,99113.98
2019-01-23T16:35:42.420Z,99099.02
2019-01-23T16:38:34.107Z,99084.57
2019-01-23T16:41:24.923Z,99075.00
2019-01-23T16:44:15.409Z,99062.87
2019-01-23T16:47:05.642Z,99051.06
2019-01-23T16:49:56.863Z,99058.49
2019-01-23T16:52:48.070Z,99060.68
2019-01-23T16:55:38.529Z,99051.83
2019-01-23T16:58:29.142Z,99063.06
2019-01-23T17:01:19.582Z,99059.94
2019-01-23T17:04:09.780Z,99051.03
2019-01-23T17:07:00.104Z,99051.41
2019-01-23T17:09:50.931Z,99048.05
2019-01-23T17:12:41.489Z,99051.98
2019-01-23T17:15:32.529Z,99051.41
2019-01-23T17:18:23.214Z,99050.67
2019-01-23T17:21:13.499Z,99049.53
2019-01-23T17:24:03.989Z,99042.48
2019-01-23T17:26:54.550Z,99042.00
2019-01-23T17:29:44.981Z,99035.23
2019-01-23T17:32:35.692Z,99035.73
2019-01-23T17:35:25.928Z,99034.14
2019-01-23T17:38:16.236Z,99009.63
2019-01-23T17:41:09.444Z,99030.22
2019-01-23T17:44:00.030Z,99032.32
2019-01-23T17:46:50.680Z,99026.41
2019-01-23T17:49:41.307Z,99023.84
2019-01-23T17:52:32.015Z,99019.91
2019-01-23T17:55:42.218Z,99021.73
2019-01-23T17:58:32.448Z,99023.23
2019-01-23T18:01:23.603Z,99021.31
2019-01-23T18:04:14.087Z,99024.20
2019-01-23T18:07:04.668Z,99017.64
2019-01-23T18:09:55.133Z,99007.05
2019-01-23T18:12:46.117Z,99006.19
2019-01-23T18:15:36.962Z,98994.91
2019-01-23T18:18:27.497Z,98977.50
2019-01-23T18:21:17.736Z,98992.64
2019-01-23T18:24:08.617Z,98983.14
2019-01-23T18:26:59.230Z,98975.27
2019-01-23T18:29:49.754Z,98960.20
2019-01-23T18:32:40.148Z,98961.93
2019-01-23T18:36:05.419Z,98965.63
2019-01-23T18:39:20.611Z,98971.14
2019-01-23T18:42:54.726Z,98959.09
2019-01-23T18:46:09.244Z,98961.60
2019-01-23T18:49:39.840Z,98967.95
2019-01-23T18:52:30.240Z,98951.87
2019-01-23T18:55:22.951Z,98947.03
2019-01-23T18:58:13.153Z,98954.44
2019-01-23T19:01:04.054Z,98925.45
2019-01-23T19:03:54.689Z,98928.48
2019-01-23T19:06:47.145Z,98926.16
2019-01-23T19:09:37.671Z,98918.12
2019-01-23T19:12:28.528Z,98920.11
2019-01-23T19:15:19.862Z,98917.44
2019-01-23T19:18:10.459Z,98913.77
2019-01-23T19:21:01.187Z,98911.60
2019-01-23T19:23:54.140Z,98909.06
2019-01-23T19:26:44.400Z,98909.75
2019-01-23T19:29:34.938Z,98911.09
2019-01-23T19:32:25.213Z,98903.05
2019-01-23T19:35:16.088Z,98900.89
2019-01-23T19:38:08.835Z,98892.70
2019-01-23T19:40:59.205Z,98899.89
2019-01-23T19:43:49.774Z,98887.14
2019-01-23T19:46:40.487Z,98879.95
2019-01-23T19:49:30.911Z,98890.34
2019-01-23T19:52:21.331Z,98889.69
2019-01-23T19:55:13.302Z,98881.12
2019-01-23T19:58:04.620Z,98886.00
2019-01-23T20:00:55.383Z,98882.63
2019-01-23T20:03:46.006Z,98879.30
2019-01-23T20:06:40.196Z,98871.91
2019-01-23T20:09:30.715Z,98838.73
2019-01-23T20:12:21.398Z,98867.84
2019-01-23T20:15:13.835Z,98850.60
2019-01-23T20:18:09.048Z,98852.77
2019-01-23T20:20:59.465Z,98841.67
2019-01-23T20:23:50.025Z,98845.67
2019-01-23T20:26:40.960Z,98839.28
2019-01-23T20:29:31.326Z,98842.30
2019-01-23T20:32:21.953Z,98853.14
2019-01-23T20:35:12.129Z,98847.98
2019-01-23T20:38:02.445Z,98850.00
2019-01-23T20:40:52.929Z,98841.45
2019-01-23T20:43:43.496Z,98839.94
2019-01-23T20:46:33.774Z,98842.13
2019-01-23T20:49:24.416Z,98833.92
2019-01-23T20:52:14.843Z,98823.56
2019-01-23T20:55:05.584Z,98827.27
2019-01-23T20:57:56.162Z,98811.04
2019-01-23T21:00:46.696Z,98807.02
2019-01-23T21:03:37.529Z,98811.20
2019-01-23T21:06:28.217Z,98814.38
2019-01-23T21:09:19.794Z,98812.22
2019-01-23T21:12:10.065Z,98802.17
2019-01-23T21:15:00.638Z,98802.17
2019-01-23T21:17:50.899Z,98792.47
2019-01-23T21:20:42.849Z,98789.80
2019-01-23T21:23:33.517Z,98778.39
2019-01-23T21:26:23.977Z,98776.73
2019-01-23T21:29:14.531Z,98774.05
2019-01-23T21:32:04.923Z,98774.41
2019-01-23T21:34:56.150Z,98765.34
2019-01-23T21:37:46.820Z,98760.14
2019-01-23T21:40:38.314Z,98767.37
2019-01-23T21:43:29.000Z,98755.62
2019-01-23T21:46:19.428Z,98709.87
2019-01-23T21:49:09.525Z,98767.19
2019-01-23T21:52:00.075Z,98747.24
2019-01-23T21:54:50.591Z,98725.97
2019-01-23T21:57:41.359Z,98758.81
2019-01-23T22:00:43.843Z,98751.28
2019-01-23T22:03:34.675Z,98756.29
2019-01-23T22:06:25.439Z,98724.62
2019-01-23T22:09:16.571Z,98735.87
2019-01-23T22:12:07.324Z,98748.25
2019-01-23T22:14:58.140Z,98743.75
2019-01-23T22:17:48.592Z,98734.34
2019-01-23T22:20:39.886Z,98731.45
2019-01-23T22:23:30.348Z,98736.45
2019-01-23T22:26:20.976Z,98736.06
2019-01-23T22:29:11.217Z,98729.66
2019-01-23T22:32:01.475Z,98740.52
2019-01-23T22:34:51.718Z,98738.25
2019-01-23T22:37:41.992Z,98731.86
2019-01-23T22:40:32.662Z,98735.55
2019-01-23T22:43:23.630Z,98735.48
2019-01-23T22:46:14.312Z,98720.94
2019-01-23T22:49:04.797Z,98722.60
2019-01-23T22:51:54.988Z,98715.81
2019-01-23T22:54:45.419Z,98711.44
2019-01-23T22:57:35.985Z,98693.85
2019-01-23T23:00:42.630Z,98692.00
2019-01-23T23:03:33.051Z,98684.27
2019-01-23T23:06:23.514Z,98685.41
2019-01-23T23:09:14.111Z,98669.14
2019-01-23T23:12:04.639Z,98664.44
2019-01-23T23:14:55.184Z,98660.72
2019-01-23T23:17:46.221Z,98639.30
2019-01-23T23:20:36.888Z,98629.94
2019-01-23T23:23:27.579Z,98618.07
2019-01-23T23:26:18.024Z,98612.73
2019-01-23T23:29:08.568Z,98631.92
2019-01-23T23:31:59.069Z,98627.07
2019-01-23T23:34:49.979Z,98611.84
2019-01-23T23:37:40.637Z,98600.14
2019-01-23T23:40:31.268Z,98591.56
2019-01-23T23:43:24.310Z,98593.06
2019-01-23T23:46:14.604Z,98594.56
2019-01-23T23:49:04.844Z,98584.20
2019-01-23T23:51:55.484Z,98582.55
2019-01-23T23:54:46.080Z,98598.73
2019-01-23T23:57:36.649Z,98586.39
